TimeCST,TemperatureF,Dew PointF,Humidity,Sea Level PressureIn,VisibilityMPH,Wind Direction,Wind SpeedMPH,Gust SpeedMPH,PrecipitationIn,Events,Conditions,WindDirDegrees,DateUTC
12:15 AM,23.5,19.4,84,30.34,10.0,Calm,Calm,-,N/A,,Overcast,0,2013-03-07 06:15:00
12:35 AM,23.7,19.6,84,30.35,10.0,East,3.5,-,N/A,,Overcast,90,2013-03-07 06:35:00
12:55 AM,23.7,19.6,84,30.36,10.0,Calm,Calm,-,N/A,,Overcast,0,2013-03-07 06:55:00
1:15 AM,23.5,19.8,85,30.36,10.0,East,3.5,-,N/A,,Overcast,90,2013-03-07 07:15:00
1:35 AM,23.7,19.8,85,30.36,10.0,Calm,Calm,-,N/A,,Overcast,0,2013-03-07 07:35:00
1:55 AM,23.7,20.1,86,30.36,10.0,Calm,Calm,-,N/A,,Overcast,0,2013-03-07 07:55:00
2:15 AM,23.7,19.9,85,30.36,10.0,North,3.5,-,N/A,,Overcast,350,2013-03-07 08:15:00
2:35 AM,23.5,20.1,87,30.36,10.0,North,5.8,-,N/A,,Overcast,360,2013-03-07 08:35:00
2:55 AM,23.5,19.9,86,30.36,10.0,NNW,4.6,-,N/A,,Overcast,340,2013-03-07 08:55:00
3:15 AM,23.4,19.9,87,30.36,10.0,NNW,3.5,-,N/A,,Overcast,330,2013-03-07 09:15:00
3:35 AM,23.4,20.1,87,30.36,10.0,Calm,Calm,-,N/A,,Overcast,0,2013-03-07 09:35:00
3:55 AM,23.4,20.1,87,30.37,10.0,WNW,4.6,-,N/A,,Overcast,290,2013-03-07 09:55:00
4:15 AM,23.5,20.3,87,30.36,10.0,Calm,Calm,-,N/A,,Overcast,0,2013-03-07 10:15:00
4:35 AM,23.4,20.1,87,30.35,10.0,Calm,Calm,-,N/A,,Overcast,0,2013-03-07 10:35:00
4:55 AM,23.2,20.1,88,30.35,10.0,Calm,Calm,-,N/A,,Overcast,0,2013-03-07 10:55:00
5:15 AM,23.2,20.1,88,30.36,10.0,Calm,Calm,-,N/A,,Overcast,0,2013-03-07 11:15:00
5:35 AM,23.2,20.1,88,30.36,10.0,Calm,Calm,-,N/A,,Overcast,0,2013-03-07 11:35:00
5:55 AM,23.4,20.3,88,30.36,10.0,Calm,Calm,-,N/A,,Overcast,0,2013-03-07 11:55:00
6:15 AM,23.5,20.3,87,30.36,10.0,Calm,Calm,-,N/A,,Overcast,0,2013-03-07 12:15:00
6:35 AM,23.5,20.3,87,30.37,10.0,Calm,Calm,-,N/A,,Overcast,0,2013-03-07 12:35:00
6:55 AM,23.9,21.0,89,30.38,10.0,Calm,Calm,-,N/A,,Overcast,0,2013-03-07 12:55:00
7:15 AM,24.3,21.2,88,30.38,10.0,Calm,Calm,-,N/A,,Overcast,0,2013-03-07 13:15:00
7:35 AM,24.6,21.0,86,30.39,10.0,Calm,Calm,-,N/A,,Overcast,0,2013-03-07 13:35:00
7:55 AM,25.3,21.4,85,30.40,10.0,Calm,Calm,-,N/A,,Overcast,0,2013-03-07 13:55:00
8:15 AM,25.9,21.0,82,30.40,10.0,Calm,Calm,-,N/A,,Overcast,0,2013-03-07 14:15:00
8:35 AM,26.6,21.2,80,30.39,10.0,SE,3.5,-,N/A,,Overcast,130,2013-03-07 14:35:00
8:55 AM,27.0,21.4,79,30.40,10.0,SSE,5.8,-,N/A,,Overcast,160,2013-03-07 14:55:00
9:15 AM,27.9,21.6,77,30.41,10.0,SSE,6.9,-,N/A,,Overcast,160,2013-03-07 15:15:00
9:35 AM,28.2,21.6,76,30.41,10.0,South,5.8,-,N/A,,Overcast,170,2013-03-07 15:35:00
9:55 AM,28.2,21.9,77,30.40,10.0,SSE,6.9,-,N/A,,Overcast,160,2013-03-07 15:55:00
10:15 AM,28.4,21.7,76,30.40,10.0,SSE,8.1,-,N/A,,Overcast,160,2013-03-07 16:15:00
10:35 AM,28.9,22.1,76,30.40,10.0,South,8.1,-,N/A,,Overcast,170,2013-03-07 16:35:00
10:55 AM,29.5,21.9,73,30.41,10.0,South,8.1,-,N/A,,Overcast,170,2013-03-07 16:55:00
11:15 AM,30.7,22.5,71,30.40,10.0,SSE,8.1,-,N/A,,Overcast,160,2013-03-07 17:15:00
11:35 AM,30.9,22.6,71,30.40,10.0,South,5.8,-,N/A,,Overcast,180,2013-03-07 17:35:00
11:55 AM,31.6,22.3,68,30.39,10.0,South,6.9,-,N/A,,Overcast,170,2013-03-07 17:55:00
12:15 PM,32.0,22.5,68,30.39,10.0,South,8.1,-,N/A,,Mostly Cloudy,170,2013-03-07 18:15:00
12:35 PM,32.0,23.0,69,30.38,10.0,South,6.9,-,N/A,,Scattered Clouds,170,2013-03-07 18:35:00
12:55 PM,32.5,23.0,68,30.36,10.0,South,8.1,-,N/A,,Scattered Clouds,170,2013-03-07 18:55:00
1:15 PM,32.7,23.7,69,30.37,10.0,South,5.8,-,N/A,,Clear,170,2013-03-07 19:15:00
1:35 PM,32.9,23.2,67,30.36,10.0,South,4.6,-,N/A,,Clear,170,2013-03-07 19:35:00
1:55 PM,32.9,23.0,67,30.36,10.0,South,4.6,-,N/A,,Clear,170,2013-03-07 19:55:00
2:15 PM,33.3,23.2,67,30.36,10.0,SSE,3.5,-,N/A,,Clear,160,2013-03-07 20:15:00
2:35 PM,33.4,23.4,67,30.35,10.0,SSE,4.6,-,N/A,,Clear,160,2013-03-07 20:35:00
2:55 PM,34.0,23.9,67,30.36,10.0,ESE,4.6,-,N/A,,Clear,110,2013-03-07 20:55:00
3:15 PM,34.2,24.1,67,30.36,10.0,ESE,4.6,-,N/A,,Clear,120,2013-03-07 21:15:00
3:35 PM,34.2,24.1,67,30.35,10.0,East,5.8,-,N/A,,Clear,100,2013-03-07 21:35:00
3:55 PM,34.0,23.7,66,30.35,10.0,East,6.9,-,N/A,,Clear,100,2013-03-07 21:55:00
4:15 PM,34.0,24.3,68,30.34,10.0,ESE,4.6,-,N/A,,Clear,120,2013-03-07 22:15:00
4:35 PM,33.8,24.1,68,30.34,10.0,ESE,5.8,-,N/A,,Clear,110,2013-03-07 22:35:00
4:55 PM,33.3,24.3,70,30.34,10.0,ESE,4.6,-,N/A,,Clear,110,2013-03-07 22:55:00
5:15 PM,32.5,24.6,73,30.35,10.0,East,5.8,-,N/A,,Clear,100,2013-03-07 23:15:00
5:35 PM,32.0,25.0,75,30.35,10.0,East,6.9,-,N/A,,Clear,80,2013-03-07 23:35:00
5:55 PM,31.8,25.2,76,30.36,10.0,East,5.8,-,N/A,,Clear,90,2013-03-07 23:55:00
7:35 PM,29.3,24.8,83,30.36,10.0,East,4.6,-,N/A,,Clear,100,2013-03-08 01:35:00
7:55 PM,28.9,24.4,83,30.36,10.0,ESE,4.6,-,N/A,,Clear,110,2013-03-08 01:55:00
8:15 PM,28.4,23.9,83,30.36,10.0,ESE,3.5,-,N/A,,Clear,110,2013-03-08 02:15:00
8:35 PM,27.7,23.7,85,30.36,10.0,East,4.6,-,N/A,,Clear,100,2013-03-08 02:35:00
8:55 PM,27.3,23.4,85,30.35,10.0,East,5.8,-,N/A,,Clear,100,2013-03-08 02:55:00
9:15 PM,27.3,23.7,86,30.35,10.0,East,5.8,-,N/A,,Clear,100,2013-03-08 03:15:00
9:35 PM,27.5,23.9,86,30.36,10.0,ESE,4.6,-,N/A,,Clear,110,2013-03-08 03:35:00
9:55 PM,26.6,23.4,88,30.37,10.0,ESE,3.5,-,N/A,,Clear,110,2013-03-08 03:55:00
10:15 PM,26.2,23.4,89,30.36,10.0,East,5.8,-,N/A,,Clear,100,2013-03-08 04:15:00
10:35 PM,26.2,23.4,89,30.37,10.0,East,4.6,-,N/A,,Clear,100,2013-03-08 04:35:00
10:55 PM,26.1,23.0,88,30.36,10.0,East,5.8,-,N/A,,Clear,100,2013-03-08 04:55:00
11:15 PM,26.6,23.4,88,30.36,10.0,East,4.6,-,N/A,,Clear,100,2013-03-08 05:15:00
11:35 PM,26.4,23.0,87,30.37,10.0,East,4.6,-,N/A,,Clear,100,2013-03-08 05:35:00
11:55 PM,26.6,23.0,86,30.37,10.0,East,5.8,-,N/A,,Clear,100,2013-03-08 05:55:00